Latest Coastal Weather Observations for Mornington Island Airport

IDQ60701

Issued at 5:51 pm EST Wednesday 18 January 2017 (issued every 10 minutes, with the page automatically refreshed every 10 minutes)

About coastal observations | Map of coastal stations | Coastal observations for QLD | Marine services | Other Formats
Station Details ID: 029182 Name: MORNINGTON ISLAND AIRPORT Lat: -16.66 Lon: 139.17 Height: 9.52 m
Data from the previous 72 hours. | See also: Recent months at Mornington Island Airport
Date/Time
EST
Temp
°C
Wind Pressure Rain since
9am
mm
Weather Cloud Vis
km
Sea
Height
m
Swell
Dir  Spd
kts
Gust
kts
hPa Trend Height
m
Period
s
Dir
18/05:30pm 29.6 NNW 11 14 1009.2 - 0.4 - - - - - - -
18/05:00pm 30.2 NW 9 11 1009.4 - 0.4 - - - - - - -
18/04:30pm 29.9 NW 11 16 1009.1 - 0.4 - - - - - - -
18/04:00pm 30.8 NNW 13 15 1009.1 - 0.4 - - - - - - -
18/03:30pm 30.7 NNW 11 15 1009.5 - 0.4 - - - - - - -
18/03:00pm 30.4 NNW 10 13 1010.0 - 0.4 Recent precip. - - - - - -
18/02:30pm 28.6 NNW 8 11 1010.2 - 0.4 - - - - - - -
18/02:00pm 28.6 N 6 8 1010.3 - 0.2 - - - - - - -
18/01:30pm 29.4 N 8 10 1011.1 - 0.0 - - - - - - -
18/01:00pm 30.4 NNW 12 15 1011.1 - 0.0 - - - - - - -
18/12:30pm 29.9 NNW 12 15 1011.6 - 0.0 - - - - - - -
18/12:00pm 30.3 NW 11 14 1011.7 - 0.0 - - - - - - -
18/11:30am 30.3 N 9 11 1012.0 - 0.0 - - - - - - -
18/11:00am 30.3 NNW 9 12 1012.2 - 0.0 - - - - - - -
18/10:30am 30.6 NNW 9 11 1012.5 - 0.0 - - - - - - -
18/10:00am 30.9 N 8 11 1012.8 - 0.0 - - - - - - -
18/09:30am 29.9 N 8 11 1012.9 - 0.0 - - - - - - -
18/09:00am 29.3 N 9 12 1013.0 - 3.8 - - - - - - -
18/08:30am 29.6 N 7 11 1012.9 - 3.8 - - - - - - -
18/08:00am 28.9 NNE 5 7 1012.4 - 3.8 - - - - - - -
18/07:30am 27.7 NE 4 6 1012.2 - 3.8 - - - - - - -
18/07:00am 26.1 NE 5 6 1011.8 - 3.8 - - - - - - -
18/06:30am 25.6 NE 4 5 1011.3 - 3.8 - - - - - - -
18/06:00am 25.6 ENE 3 4 1011.0 - 3.8 - - - - - - -
18/05:30am 25.7 ENE 4 5 1010.7 - 3.8 - - - - - - -
18/05:00am 25.8 ENE 5 5 1010.3 - 3.8 - - - - - - -
18/04:30am 26.0 NE 4 5 1010.2 - 3.8 - - - - - - -
18/04:00am 26.1 NE 3 4 1010.2 - 3.8 - - - - - - -
18/03:30am 26.1 NE 3 4 1010.2 - 3.8 - - - - - - -
18/03:00am 26.0 NE 4 5 1010.4 - 3.8 - - - - - - -
18/02:30am 25.8 NE 4 5 1010.6 - 3.8 - - - - - - -
18/02:00am 25.6 ENE 4 4 1010.6 - 3.8 - - - - - - -
18/01:30am 25.6 ENE 4 4 1010.6 - 3.8 - - - - - - -
18/01:00am 25.5 ENE 4 5 1010.8 - 3.8 - - - - - - -
18/12:30am 25.4 ENE 3 4 1011.0 - 3.8 - - - - - - -
18/12:00am 25.5 ENE 5 5 1011.0 - 3.8 - - - - - - -
 
Date/Time
EST
Temp
°C
Wind Pressure Rain since
9am
mm
Weather Cloud Vis
km
Sea
Height
m
Swell
Dir  Spd
kts
Gust
kts
hPa Trend Height
m
Period
s
Dir
17/11:30pm 25.6 ENE 4 5 1010.7 - 3.8 - - - - - - -
17/11:00pm 25.7 ENE 4 5 1010.8 - 3.8 - - - - - - -
17/10:30pm 25.7 E 4 5 1010.5 - 3.8 - - - - - - -
17/10:00pm 25.8 ENE 3 4 1010.3 - 3.8 - - - - - - -
17/09:30pm 26.1 ENE 4 5 1010.4 - 3.8 - - - - - - -
17/09:00pm 26.3 ENE 4 5 1010.2 - 3.8 - - - - - - -
17/08:30pm 26.4 NE 4 5 1010.1 - 3.8 - - - - - - -
17/08:00pm 26.7 ENE 5 6 1009.9 - 3.8 - - - - - - -
17/07:30pm 27.0 NE 4 5 1009.7 - 3.8 - - - - - - -
17/07:00pm 27.4 NNE 5 7 1009.4 - 3.8 - - - - - - -
17/06:30pm 27.8 N 6 9 1009.1 - 3.8 - - - - - - -
17/06:00pm 27.5 N 9 13 1009.0 - 3.8 - - - - - - -
17/05:30pm 27.4 N 9 12 1008.9 - 3.8 - - - - - - -
17/05:00pm 26.9 N 9 13 1009.0 - 3.8 - - - - - - -
17/04:30pm 27.2 N 9 13 1009.1 - 3.8 - - - - - - -
17/04:00pm 26.8 N 7 10 1009.4 - 3.8 - - - - - - -
17/03:30pm 26.3 N 9 13 1009.7 - 3.8 - - - - - - -
17/03:00pm 25.9 N 9 12 1009.7 - 3.4 Rain - - - - - -
17/02:30pm 25.3 N 9 14 1010.4 - 2.6 - - - - - - -
17/02:00pm 25.9 N 13 23 1010.6 - 2.2 - - - - - - -
17/01:30pm 27.1 NNW 11 15 1010.3 - 2.2 - - - - - - -
17/01:00pm 26.2 NNW 13 18 1010.6 - 2.0 - - - - - - -
17/12:30pm 26.0 N 9 13 1010.7 - 1.4 - - - - - - -
17/12:10pm 25.9 NNW 21 31 1011.1 - 0.8 - - - - - - -
17/12:02pm 28.3 N 16 27 1011.0 - 0.4 - - - - - - -
17/12:00pm 30.2 N 15 27 1010.9 - 0.4 - - - - - - -
17/11:30am 30.5 NNE 12 17 1010.6 - 0.4 - - - - - - -
17/11:00am 30.4 NNE 13 18 1010.7 - 0.4 - - - - - - -
17/10:30am 30.1 NNE 14 20 1010.9 - 0.4 - - - - - - -
17/10:00am 27.8 N 7 11 1010.9 - 0.4 - - - - - - -
17/09:30am 29.1 NE 7 11 1010.9 - 0.0 - - - - - - -
17/09:00am 28.0 NE 8 11 1010.9 - 1.8 - - - - - - -
17/08:30am 27.7 NE 7 9 1010.5 - 1.8 - - - - - - -
17/08:00am 26.4 NE 4 6 1010.1 - 1.8 - - - - - - -
17/07:30am 25.8 ENE 4 5 1009.6 - 1.8 - - - - - - -
17/07:00am 25.7 E 3 4 1009.1 - 1.8 - - - - - - -
17/06:30am 25.9 E 3 4 1008.7 - 1.8 - - - - - - -
17/06:00am 26.8 N 5 6 1008.4 - 1.8 - - - - - - -
17/05:30am 26.9 N 8 11 1007.9 - 1.8 - - - - - - -
17/05:00am 25.4 NNE 5 7 1007.6 - 1.8 - - - - - - -
17/04:30am 25.6 NNE 5 7 1007.4 - 1.8 - - - - - - -
17/04:00am 25.9 NNE 5 8 1007.3 - 1.6 - - - - - - -
17/03:30am 26.7 N 8 11 1007.4 - 1.6 - - - - - - -
17/03:00am 27.2 N 9 14 1007.4 - 1.6 - - - - - - -
17/02:30am 27.3 N 10 14 1007.2 - 1.6 - - - - - - -
17/02:00am 27.2 N 12 19 1007.4 - 1.6 - - - - - - -
17/01:30am 26.1 N 7 10 1007.7 - 1.6 - - - - - - -
17/01:00am 25.8 NNW 15 21 1008.1 - 1.6 - - - - - - -
17/12:30am 27.2 NNW 10 14 1008.0 - 1.2 - - - - - - -
17/12:00am 27.0 NNW 9 15 1008.2 - 1.2 - - - - - - -
 
Date/Time
EST
Temp
°C
Wind Pressure Rain since
9am
mm
Weather Cloud Vis
km
Sea
Height
m
Swell
Dir  Spd
kts
Gust
kts
hPa Trend Height
m
Period
s
Dir
16/11:30pm 27.5 NNW 11 16 1008.5 - 1.2 - - - - - - -
16/11:00pm 26.9 N 12 19 1008.6 - 1.2 - - - - - - -
16/10:30pm 27.3 N 12 17 1008.6 - 1.2 - - - - - - -
16/10:00pm 27.1 NNW 14 19 1008.3 - 1.2 - - - - - - -
16/09:30pm 27.1 NNW 21 27 1008.1 - 1.2 - - - - - - -
16/09:17pm 27.5 NNW 17 27 1007.9 - 1.2 - - - - - - -
16/09:00pm 27.5 NNW 14 21 1007.6 - 1.2 - - - - - - -
16/08:30pm 26.9 NNW 12 16 1007.4 - 1.2 - - - - - - -
16/08:00pm 26.7 NW 14 17 1007.2 - 1.2 - - - - - - -
16/07:30pm 26.4 NW 19 23 1007.1 - 1.2 - - - - - - -
16/07:13pm 26.7 NW 17 27 1006.8 - 1.2 - - - - - - -
16/07:00pm 27.2 NW 14 19 1006.5 - 1.2 - - - - - - -
16/06:30pm 26.4 NW 20 25 1006.1 - 1.2 - - - - - - -
16/06:19pm 26.7 WNW 15 25 1005.9 - 1.0 - - - - - - -
16/06:00pm 27.2 WNW 10 14 1005.8 - 1.0 - - - - - - -
16/05:30pm 27.3 WNW 12 15 1005.4 - 1.0 - - - - - - -
16/05:00pm 26.5 WNW 13 18 1005.2 - 1.0 - - - - - - -
16/04:30pm 26.8 NNW 15 19 1005.1 - 1.0 - - - - - - -
16/04:00pm 28.1 NNW 12 15 1004.8 - 1.0 - - - - - - -
16/03:30pm 29.1 NW 13 16 1005.0 - 1.0 - - - - - - -
16/03:00pm 29.0 WNW 7 8 1005.5 - 1.0 - - - - - - -
16/02:30pm 27.9 NW 10 16 1005.9 - 1.0 - - - - - - -
16/02:00pm 28.3 NW 9 11 1006.2 - 1.0 - - - - - - -
16/01:30pm 27.7 NNW 9 11 1006.5 - 1.0 - - - - - - -
16/01:00pm 27.6 NNW 9 11 1006.6 - 1.0 - - - - - - -
16/12:30pm 27.8 NW 9 11 1006.7 - 1.0 - - - - - - -
16/12:00pm 28.3 NW 12 14 1006.8 - 0.8 - - - - - - -
16/11:30am 27.6 NNW 13 16 1007.1 - 0.8 - - - - - - -
16/11:00am 26.8 NNW 6 9 1006.8 - 0.8 - - - - - - -
16/10:30am 26.3 NNW 15 20 1007.4 - 0.4 - - - - - - -
16/10:00am 26.8 NNW 21 27 1007.5 - 0.2 - - - - - - -
16/09:31am 27.1 NNW 15 25 1007.6 - 0.2 - - - - - - -
16/09:30am 27.4 NNW 14 22 1007.6 - 0.2 - - - - - - -
16/09:16am 27.1 N 15 22 1007.6 - 0.2 - - - - - - -
16/09:00am 26.4 NNW 7 9 1007.5 - 30.4 Rain - - - - - -
16/08:30am 25.7 NE 5 8 1007.5 - 29.8 - - - - - - -
16/08:00am 25.9 E 6 14 1007.1 - 29.8 - - - - - - -
16/07:30am 25.8 E 3 4 1006.6 - 29.6 - - - - - - -
16/07:00am 25.4 ENE 3 4 1006.5 - 29.6 - - - - - - -
16/06:30am 25.1 NE 5 6 1006.1 - 29.6 - - - - - - -
16/06:00am 25.0 ENE 5 6 1005.6 - 29.6 Recent precip. - - - - - -
16/05:30am 25.0 N 5 6 1005.5 - 29.4 - - - - - - -
16/05:00am 24.8 NNW 6 8 1005.4 - 29.2 - - - - - - -
16/04:30am 25.4 NNE 5 7 1005.0 - 29.2 - - - - - - -
16/04:00am 25.5 NE 5 7 1005.3 - 29.2 - - - - - - -
16/03:30am 25.4 ENE 5 6 1005.3 - 29.2 - - - - - - -
16/03:00am 25.3 ENE 7 8 1005.4 - 29.2 - - - - - - -
16/02:30am 25.3 E 4 4 1005.7 - 29.2 - - - - - - -
16/02:00am 25.4 E 4 6 1005.8 - 29.2 - - - - - - -
16/01:30am 25.4 ENE 6 7 1006.0 - 29.2 - - - - - - -
16/01:00am 25.5 E 5 6 1006.6 - 29.2 - - - - - - -
16/12:30am 25.5 E 5 6 1007.1 - 29.2 - - - - - - -
16/12:00am 25.7 ENE 4 5 1007.4 - 29.2 - - - - - - -
 
Date/Time
EST
Temp
°C
Wind Pressure Rain since
9am
mm
Weather Cloud Vis
km
Sea
Height
m
Swell
Dir  Spd
kts
Gust
kts
hPa Trend Height
m
Period
s
Dir
15/11:30pm 25.8 NE 4 6 1007.6 - 29.2 - - - - - - -
15/11:00pm 26.4 ENE 5 6 1007.6 - 29.2 - - - - - - -
15/10:30pm 26.7 WSW 5 7 1007.6 - 29.0 - - - - - - -
15/10:00pm 26.5 WSW 5 7 1007.3 - 29.0 - - - - - - -
15/09:30pm 26.4 W 6 7 1007.3 - 29.0 - - - - - - -
15/09:00pm 26.4 WNW 7 9 1007.3 - 29.0 - - - - - - -
15/08:30pm 26.2 NW 7 9 1006.7 - 29.0 - - - - - - -
15/08:00pm 25.2 N 5 7 1006.3 - 29.0 - - - - - - -
15/07:30pm 25.1 CALM 0 0 1005.8 - 29.0 - - - - - - -
15/07:00pm 24.9 N 3 4 1005.8 - 29.0 - - - - - - -
15/06:30pm 24.9 CALM 0 0 1005.9 - 29.0 - - - - - - -
15/06:00pm 24.7 SE 3 4 1006.2 - 28.8 Rain - - - - - -

Other Formats:

Comma delimited format used in spreadsheet applications
http://www.bom.gov.au/fwo/IDQ60701/IDQ60701.94254.axf

JavaScript Object Notation format (JSON) in row-major order
http://www.bom.gov.au/fwo/IDQ60701/IDQ60701.94254.json